Flight Track Log - Related Links

Times and Time Zones

All times are in EDT time to prevent confusion due to time zone crossing. See the NKS434 flight status page for this flight to view local times or setup timezone preferences in your user account.

Time Position Orientation Groundspeed Altitude Reporting Facility
EDT Latitude Longitude Course Direction KTS MPH feet Rate Location/Type
Sun 04:38:00 AM 22.8868 -81.6347 21° North  Level Estimated
Sun 04:39:00 AM 22.9875 -81.5891 23° Northeast  Level Estimated
Sun 04:39:12 AM 22.9950 -81.5290 23° Northeast 443 510 38,000  Level FlightAware ADS-B
Sun 04:39:49 AM 23.0690 -81.5030 18° North 444 511 38,000  Level FlightAware ADS-B
Sun 04:40:25 AM 23.1350 -81.4790 18° North 444 511 38,000  Level FlightAware ADS-B
Sun 04:40:58 AM 23.2100 -81.4510 19° North 456 525 38,000  Level FlightAware ADS-B
Sun 04:41:36 AM 23.2780 -81.4270 18° North 454 522 38,000  Level FlightAware ADS-B
Sun 04:42:05 AM 23.3400 -81.4040 19° North 455 524 38,000  Level FlightAware ADS-B
Sun 04:42:40 AM 23.4130 -81.3770 19° North 455 524 38,000  Level FlightAware ADS-B
Sun 04:43:21 AM 23.4950 -81.3480 18° North 440 506 38,000  Level FlightAware ADS-B
Sun 04:43:53 AM 23.5570 -81.3250 19° North 440 506 38,000  Level FlightAware ADS-B
Sun 04:44:28 AM 23.6270 -81.2990 19° North 442 509 38,000  Level FlightAware ADS-B
Sun 04:45:03 AM 23.6970 -81.2730 19° North 454 522 38,000  Level FlightAware ADS-B
Sun 04:45:43 AM 23.7770 -81.2440 18° North 454 522 38,000 -320 Level FlightAware ADS-B
Sun 04:46:18 AM 23.8460 -81.2190 18° North 444 511 37,600 -960 Descending FlightAware ADS-B
Sun 04:46:58 AM 23.9250 -81.1900 19° North 457 526 36,800 -1,286 Descending FlightAware ADS-B
Sun 04:47:28 AM 23.9850 -81.1670 19° North 458 527 36,100 -1,292 Descending FlightAware ADS-B
Sun 04:48:03 AM 24.0580 -81.1410 18° North 456 525 35,400 -1,200 Descending FlightAware ADS-B
Sun 04:48:38 AM 24.1300 -81.1140 19° North 463 533 34,700 -1,371 Descending FlightAware ADS-B
Sun 04:49:13 AM 24.2020 -81.0880 18° North 460 529 33,800 -1,840 Descending FlightAware ADS-B
Sun 04:49:53 AM 24.2840 -81.0570 19° North 471 542 32,400 -2,113 Descending FlightAware ADS-B
Sun 04:50:24 AM 24.3470 -81.0340 18° North 475 547 31,300 -2,215 Descending FlightAware ADS-B
Sun 04:50:58 AM 24.4200 -81.0070 19° North 474 545 30,000 -2,351 Descending FlightAware ADS-B
Sun 04:51:38 AM 24.5050 -80.9750 19° North 476 548 28,400 -2,400 Descending FlightAware ADS-B
Sun 04:52:08 AM 24.5700 -80.9510 19° North 489 563 27,200 -2,364 Descending FlightAware ADS-B
Sun 04:52:44 AM 24.6460 -80.9230 19° North 493 567 25,800 -2,480 Descending FlightAware ADS-B
Sun 04:53:23 AM 24.7340 -80.8900 19° North 480 552 24,100 -2,800 Descending FlightAware ADS-B
Sun 04:53:59 AM 24.8060 -80.8630 19° North 478 550 22,300 -3,171 Descending FlightAware ADS-B
Sun 04:54:33 AM 24.8780 -80.8360 19° North 462 532 20,400 -3,375 Descending FlightAware ADS-B
Sun 04:55:03 AM 24.9430 -80.8120 19° North 463 533 18,700 -2,914 Descending FlightAware ADS-B
Sun 04:55:43 AM 25.0220 -80.7820 19° North 444 511 17,000 -2,486 Descending FlightAware ADS-B
Sun 04:56:13 AM 25.0790 -80.7610 18° North 423 487 15,800 -2,182 Descending FlightAware ADS-B
Sun 04:56:49 AM 25.1450 -80.7360 19° North 427 491 14,600 -2,080 Descending FlightAware ADS-B
Sun 04:57:28 AM 25.2190 -80.7080 19° North 412 474 13,200 -2,087 Descending FlightAware ADS-B
Sun 04:57:58 AM 25.2740 -80.6870 19° North 412 474 12,200 -1,800 Descending FlightAware ADS-B
Sun 04:58:38 AM 25.3400 -80.6620 19° North 412 474 11,100 -947 Descending FlightAware ADS-B
Sun 04:59:14 AM 25.4070 -80.6370 19° North 388 447 11,000 -448 Descending FlightAware ADS-B
Sun 04:59:45 AM 25.4590 -80.6170 19° North 343 395 10,600 -909 Descending FlightAware ADS-B
Sun 05:00:20 AM 25.5100 -80.5980 19° North 311 358 10,000 -1,091 Descending FlightAware ADS-B
Sun 05:00:40 AM 25.5370 -80.5880 18° North 304 350 9,600 -1,500 Descending FlightAware ADS-B
Sun 05:01:00 AM 25.5630 -80.5780 19° North 304 350 9,000 -1,435 Descending FlightAware ADS-B
Sun 05:01:26 AM 25.5960 -80.5650 20° North 288 331 8,500 -1,333 Descending FlightAware ADS-B
Sun 05:01:45 AM 25.6220 -80.5550 19° North 294 338 8,000 -1,579 Descending FlightAware ADS-B
Sun 05:02:04 AM 25.6470 -80.5460 18° North 292 336 7,500 -1,429 Descending FlightAware ADS-B
Sun 05:02:27 AM 25.6730 -80.5360 19° North 289 333 7,000 -1,435 Descending FlightAware ADS-B
Sun 05:02:50 AM 25.7050 -80.5240 19° North 278 320 6,400 -1,714 Descending FlightAware ADS-B
Sun 05:03:09 AM 25.7290 -80.5140 21° North 288 331 5,800 -1,650 Descending FlightAware ADS-B
Sun 05:03:30 AM 25.7550 -80.5050 17° North 286 329 5,300 -1,167 Descending FlightAware ADS-B
Sun 05:03:45 AM 25.7740 -80.4970 21° North 273 314 5,100 -514 Descending FlightAware ADS-B
Sun 05:04:05 AM 25.7990 -80.4880 18° North 287 330 5,000 -154 Descending FlightAware ADS-B
Sun 05:04:24 AM 25.8210 -80.4800 18° North 286 329 5,000  Level FlightAware ADS-B
Sun 05:04:45 AM 25.8480 -80.4690 20° North 278 320 5,000  Level FlightAware ADS-B
Sun 05:05:10 AM 25.8810 -80.4570 18° North 273 314 5,000 -933 Level FlightAware ADS-B
Sun 05:05:30 AM 25.9050 -80.4480 19° North 270 311 4,300 -2,250 Descending FlightAware ADS-B
Sun 05:05:50 AM 25.9280 -80.4390 19° North 273 314 3,500 -2,400 Descending FlightAware ADS-B
Sun 05:06:05 AM 25.9460 -80.4280 29° Northeast 277 319 2,900 -2,400 Descending FlightAware ADS-B
Sun 05:06:10 AM 25.9510 -80.4230 42° Northeast 270 311 2,700 -1,800 Descending FlightAware ADS-B
Sun 05:06:35 AM 25.9720 -80.3960 49° Northeast 271 312 2,000 -1,227 Descending FlightAware ADS-B
Sun 05:06:54 AM 25.9880 -80.3770 47° Northeast 253 291 1,800 -300 Descending FlightAware ADS-B
Sun 05:07:15 AM 26.0030 -80.3580 49° Northeast 237 273 1,800  Level FlightAware ADS-B
Sun 05:07:35 AM 26.0180 -80.3400 47° Northeast 222 255 1,800  Level FlightAware ADS-B
Sun 05:07:55 AM 26.0310 -80.3230 50° Northeast 201 231 1,800 171 Level FlightAware ADS-B
Sun 05:08:10 AM 26.0400 -80.3120 48° Northeast 196 226 1,900  Climbing FlightAware ADS-B
Sun 05:08:30 AM 26.0530 -80.2970 46° Northeast 196 226 1,800 -150 Descending FlightAware ADS-B
Sun 05:08:50 AM 26.0650 -80.2820 48° Northeast 196 226 1,800 -133 Level FlightAware ADS-B
Sun 05:09:15 AM 26.0760 -80.2620 59° Northeast 182 209 1,700 -414 Descending FlightAware ADS-B
Sun 05:09:19 AM 26.0770 -80.2580 74° East 177 204 1,600 -828 Descending FlightAware ADS-B
Sun 05:09:44 AM 26.0770 -80.2360 90° East 148 170 1,300 -818 Descending FlightAware ADS-B
Sun 05:10:03 AM 26.0770 -80.2220 90° East 143 165 1,000 -783 Descending FlightAware ADS-B
Sun 05:10:30 AM 26.0770 -80.2040 90° East 139 160 700 -638 Descending FlightAware ADS-B
Sun 05:10:50 AM 26.0770 -80.1930 90° East 135 155 500 -714 Descending FlightAware ADS-B
Sun 05:11:12 AM 26.0770 -80.1740 90° East 131 151 200 -818 Descending FlightAware ADS-B
Sun 05:18:00 AM 26.0667 -80.1500 50° Northeast  Level FlightAware Approximate
Sun 05:19:00 AM 26.0726 -80.1527 50° Northeast  Level Estimated

Login

Don't have an account? Register now (free) for customized features, flight alerts, and more!